sensor_id;sensor_type;location;lat;lon;timestamp;pressure;altitude;pressure_sealevel;temperature;humidity
28927;BME280;16038;47.692;9.400;2023-04-28T00:02:10;96480.25;;;10.62;100.00
28927;BME280;16038;47.692;9.400;2023-04-28T00:04:36;96481.00;;;10.59;100.00
28927;BME280;16038;47.692;9.400;2023-04-28T00:07:01;96484.53;;;10.59;100.00
28927;BME280;16038;47.692;9.400;2023-04-28T00:09:26;96475.09;;;10.57;100.00
28927;BME280;16038;47.692;9.400;2023-04-28T00:11:52;96481.38;;;10.57;100.00
28927;BME280;16038;47.692;9.400;2023-04-28T00:14:17;96484.53;;;10.59;100.00
28927;BME280;16038;47.692;9.400;2023-04-28T00:16:43;96477.56;;;10.65;100.00
28927;BME280;16038;47.692;9.400;2023-04-28T00:19:08;96478.88;;;10.75;99.99
28927;BME280;16038;47.692;9.400;2023-04-28T00:21:33;96475.69;;;10.73;100.00
28927;BME280;16038;47.692;9.400;2023-04-28T00:23:59;96476.88;;;10.72;100.00
28927;BME280;16038;47.692;9.400;2023-04-28T00:26:24;96475.69;;;10.73;100.00
28927;BME280;16038;47.692;9.400;2023-04-28T00:28:49;96468.28;;;10.74;100.00
28927;BME280;16038;47.692;9.400;2023-04-28T00:31:15;96470.25;;;10.77;100.00
28927;BME280;16038;47.692;9.400;2023-04-28T00:33:40;96476.53;;;10.77;100.00
28927;BME280;16038;47.692;9.400;2023-04-28T00:36:06;96470.69;;;10.79;100.00
28927;BME280;16038;47.692;9.400;2023-04-28T00:38:32;96473.03;;;10.80;99.98
28927;BME280;16038;47.692;9.400;2023-04-28T00:40:57;96465.66;;;10.84;99.23
28927;BME280;16038;47.692;9.400;2023-04-28T00:43:22;96465.66;;;10.84;100.00
28927;BME280;16038;47.692;9.400;2023-04-28T00:45:50;96461.34;;;10.83;99.47
28927;BME280;16038;47.692;9.400;2023-04-28T00:48:16;96466.03;;;10.83;99.00
28927;BME280;16038;47.692;9.400;2023-04-28T00:50:42;96466.09;;;10.86;99.64
28927;BME280;16038;47.692;9.400;2023-04-28T00:53:07;96466.81;;;10.83;100.00
28927;BME280;16038;47.692;9.400;2023-04-28T00:55:34;96457.41;;;10.81;100.00
28927;BME280;16038;47.692;9.400;2023-04-28T00:57:59;96455.78;;;10.76;100.00
28927;BME280;16038;47.692;9.400;2023-04-28T01:00:26;96453.75;;;10.69;100.00
28927;BME280;16038;47.692;9.400;2023-04-28T01:02:51;96452.19;;;10.68;100.00
28927;BME280;16038;47.692;9.400;2023-04-28T01:05:17;96449.03;;;10.66;100.00
28927;BME280;16038;47.692;9.400;2023-04-28T01:07:43;96450.19;;;10.65;100.00
28927;BME280;16038;47.692;9.400;2023-04-28T01:10:08;96443.50;;;10.63;100.00
28927;BME280;16038;47.692;9.400;2023-04-28T01:12:34;96441.13;;;10.61;100.00
28927;BME280;16038;47.692;9.400;2023-04-28T01:14:59;96433.25;;;10.56;100.00
28927;BME280;16038;47.692;9.400;2023-04-28T01:17:25;96429.22;;;10.46;100.00
28927;BME280;16038;47.692;9.400;2023-04-28T01:19:51;96431.13;;;10.42;100.00
28927;BME280;16038;47.692;9.400;2023-04-28T01:22:17;96433.47;;;10.44;100.00
28927;BME280;16038;47.692;9.400;2023-04-28T01:24:42;96432.00;;;10.50;100.00
28927;BME280;16038;47.692;9.400;2023-04-28T01:27:07;96431.75;;;10.62;100.00
28927;BME280;16038;47.692;9.400;2023-04-28T01:29:33;96427.59;;;10.76;100.00
28927;BME280;16038;47.692;9.400;2023-04-28T01:31:58;96423.41;;;10.85;100.00
28927;BME280;16038;47.692;9.400;2023-04-28T01:34:23;96423.00;;;10.83;100.00
28927;BME280;16038;47.692;9.400;2023-04-28T01:36:48;96419.34;;;10.72;100.00
28927;BME280;16038;47.692;9.400;2023-04-28T01:39:14;96417.72;;;10.67;100.00
28927;BME280;16038;47.692;9.400;2023-04-28T01:41:39;96424.00;;;10.68;100.00
28927;BME280;16038;47.692;9.400;2023-04-28T01:44:04;96432.63;;;10.70;100.00
28927;BME280;16038;47.692;9.400;2023-04-28T01:46:31;96428.69;;;10.67;100.00
28927;BME280;16038;47.692;9.400;2023-04-28T01:48:57;96424.81;;;10.72;100.00
28927;BME280;16038;47.692;9.400;2023-04-28T01:51:22;96429.66;;;10.82;100.00
28927;BME280;16038;47.692;9.400;2023-04-28T01:53:47;96423.41;;;10.85;100.00
28927;BME280;16038;47.692;9.400;2023-04-28T01:56:13;96433.63;;;10.88;100.00
28927;BME280;16038;47.692;9.400;2023-04-28T01:58:38;96434.44;;;10.93;100.00
28927;BME280;16038;47.692;9.400;2023-04-28T02:01:03;96432.94;;;10.99;100.00
28927;BME280;16038;47.692;9.400;2023-04-28T02:03:29;96424.75;;;11.02;100.00
28927;BME280;16038;47.692;9.400;2023-04-28T02:05:54;96424.63;;;10.88;100.00
28927;BME280;16038;47.692;9.400;2023-04-28T02:08:19;96413.06;;;10.68;100.00
28927;BME280;16038;47.692;9.400;2023-04-28T02:10:45;96407.28;;;10.43;100.00
28927;BME280;16038;47.692;9.400;2023-04-28T02:13:10;96409.84;;;10.62;100.00
28927;BME280;16038;47.692;9.400;2023-04-28T02:15:39;96409.03;;;10.96;100.00
28927;BME280;16038;47.692;9.400;2023-04-28T02:18:05;96422.50;;;11.12;100.00
28927;BME280;16038;47.692;9.400;2023-04-28T02:20:30;96422.63;;;10.85;100.00
28927;BME280;16038;47.692;9.400;2023-04-28T02:22:55;96424.94;;;10.83;100.00
28927;BME280;16038;47.692;9.400;2023-04-28T02:25:21;96431.56;;;10.82;100.00
28927;BME280;16038;47.692;9.400;2023-04-28T02:27:46;96435.50;;;10.81;100.00
28927;BME280;16038;47.692;9.400;2023-04-28T02:30:11;96427.69;;;10.83;100.00
28927;BME280;16038;47.692;9.400;2023-04-28T02:32:37;96425.44;;;10.92;100.00
28927;BME280;16038;47.692;9.400;2023-04-28T02:35:03;96438.06;;;11.00;100.00
28927;BME280;16038;47.692;9.400;2023-04-28T02:37:30;96451.84;;;11.07;100.00
28927;BME280;16038;47.692;9.400;2023-04-28T02:39:55;96466.81;;;11.17;100.00
28927;BME280;16038;47.692;9.400;2023-04-28T02:42:20;96469.88;;;11.12;100.00
28927;BME280;16038;47.692;9.400;2023-04-28T02:44:46;96475.97;;;10.98;100.00
28927;BME280;16038;47.692;9.400;2023-04-28T02:47:11;96462.66;;;10.93;100.00
28927;BME280;16038;47.692;9.400;2023-04-28T02:49:36;96480.16;;;10.85;100.00
28927;BME280;16038;47.692;9.400;2023-04-28T02:52:02;96487.25;;;10.89;100.00
28927;BME280;16038;47.692;9.400;2023-04-28T02:54:27;96490.38;;;10.88;100.00
28927;BME280;16038;47.692;9.400;2023-04-28T02:56:53;96494.53;;;10.78;100.00
28927;BME280;16038;47.692;9.400;2023-04-28T02:59:18;96494.78;;;11.00;100.00
28927;BME280;16038;47.692;9.400;2023-04-28T03:01:43;96487.84;;;11.06;100.00
28927;BME280;16038;47.692;9.400;2023-04-28T03:04:09;96484.22;;;10.98;100.00
28927;BME280;16038;47.692;9.400;2023-04-28T03:06:34;96483.25;;;10.83;100.00
28927;BME280;16038;47.692;9.400;2023-04-28T03:09:00;96494.88;;;10.73;100.00
28927;BME280;16038;47.692;9.400;2023-04-28T03:11:25;96490.81;;;10.60;100.00
28927;BME280;16038;47.692;9.400;2023-04-28T03:13:50;96480.72;;;10.67;100.00
28927;BME280;16038;47.692;9.400;2023-04-28T03:16:16;96482.34;;;10.72;100.00
28927;BME280;16038;47.692;9.400;2023-04-28T03:18:41;96479.53;;;10.65;100.00
28927;BME280;16038;47.692;9.400;2023-04-28T03:21:08;96477.88;;;10.60;100.00
28927;BME280;16038;47.692;9.400;2023-04-28T03:23:33;96486.66;;;10.73;100.00
28927;BME280;16038;47.692;9.400;2023-04-28T03:25:59;96482.31;;;10.68;100.00
28927;BME280;16038;47.692;9.400;2023-04-28T03:28:24;96484.78;;;10.47;100.00
28927;BME280;16038;47.692;9.400;2023-04-28T03:30:50;96487.13;;;10.22;100.00
28927;BME280;16038;47.692;9.400;2023-04-28T03:33:15;96477.97;;;9.84;100.00
28927;BME280;16038;47.692;9.400;2023-04-28T03:35:40;96482.44;;;9.69;100.00
28927;BME280;16038;47.692;9.400;2023-04-28T03:38:06;96494.31;;;9.80;100.00
28927;BME280;16038;47.692;9.400;2023-04-28T03:40:31;96509.97;;;10.06;100.00
28927;BME280;16038;47.692;9.400;2023-04-28T03:42:57;96513.09;;;10.05;100.00
28927;BME280;16038;47.692;9.400;2023-04-28T03:45:22;96510.47;;;10.12;100.00
28927;BME280;16038;47.692;9.400;2023-04-28T03:47:47;96513.34;;;10.23;100.00
28927;BME280;16038;47.692;9.400;2023-04-28T03:50:12;96522.34;;;10.23;100.00
28927;BME280;16038;47.692;9.400;2023-04-28T03:52:38;96518.63;;;10.35;100.00
28927;BME280;16038;47.692;9.400;2023-04-28T03:55:03;96514.69;;;10.32;100.00
28927;BME280;16038;47.692;9.400;2023-04-28T03:57:29;96502.59;;;10.33;100.00
28927;BME280;16038;47.692;9.400;2023-04-28T03:59:54;96497.34;;;10.25;100.00
28927;BME280;16038;47.692;9.400;2023-04-28T04:02:19;96503.13;;;10.20;100.00
28927;BME280;16038;47.692;9.400;2023-04-28T04:04:45;96511.38;;;9.97;100.00
28927;BME280;16038;47.692;9.400;2023-04-28T04:07:11;96514.31;;;9.84;100.00
28927;BME280;16038;47.692;9.400;2023-04-28T04:09:37;96522.09;;;9.82;100.00
28927;BME280;16038;47.692;9.400;2023-04-28T04:12:02;96515.81;;;10.05;100.00
28927;BME280;16038;47.692;9.400;2023-04-28T04:14:28;96518.72;;;10.16;100.00
28927;BME280;16038;47.692;9.400;2023-04-28T04:16:54;96523.88;;;9.94;100.00
28927;BME280;16038;47.692;9.400;2023-04-28T04:19:20;96530.97;;;9.52;100.00
28927;BME280;16038;47.692;9.400;2023-04-28T04:21:48;96526.13;;;9.42;100.00
28927;BME280;16038;47.692;9.400;2023-04-28T04:24:13;96517.22;;;9.49;100.00
28927;BME280;16038;47.692;9.400;2023-04-28T04:26:39;96505.25;;;9.34;100.00
28927;BME280;16038;47.692;9.400;2023-04-28T04:29:05;96506.31;;;9.26;100.00
28927;BME280;16038;47.692;9.400;2023-04-28T04:31:31;96501.25;;;9.28;100.00
28927;BME280;16038;47.692;9.400;2023-04-28T04:33:57;96510.91;;;9.45;100.00
28927;BME280;16038;47.692;9.400;2023-04-28T04:36:22;96498.59;;;9.54;100.00
28927;BME280;16038;47.692;9.400;2023-04-28T04:38:48;96512.56;;;9.49;100.00
28927;BME280;16038;47.692;9.400;2023-04-28T04:41:13;96509.75;;;9.23;100.00
28927;BME280;16038;47.692;9.400;2023-04-28T04:43:39;96508.34;;;9.09;100.00
28927;BME280;16038;47.692;9.400;2023-04-28T04:46:04;96510.31;;;9.12;100.00
28927;BME280;16038;47.692;9.400;2023-04-28T04:48:29;96507.41;;;9.02;100.00
28927;BME280;16038;47.692;9.400;2023-04-28T04:50:55;96507.09;;;9.07;100.00
28927;BME280;16038;47.692;9.400;2023-04-28T04:53:20;96510.13;;;9.02;100.00
28927;BME280;16038;47.692;9.400;2023-04-28T04:55:45;96519.63;;;9.08;100.00
28927;BME280;16038;47.692;9.400;2023-04-28T04:58:11;96522.44;;;9.11;100.00
28927;BME280;16038;47.692;9.400;2023-04-28T05:00:36;96525.19;;;9.57;100.00
28927;BME280;16038;47.692;9.400;2023-04-28T05:03:02;96525.19;;;9.57;100.00
28927;BME280;16038;47.692;9.400;2023-04-28T05:05:28;96540.72;;;9.73;100.00
28927;BME280;16038;47.692;9.400;2023-04-28T05:07:53;96546.47;;;9.68;100.00
28927;BME280;16038;47.692;9.400;2023-04-28T05:10:18;96538.28;;;9.91;100.00
28927;BME280;16038;47.692;9.400;2023-04-28T05:12:44;96531.38;;;10.01;100.00
28927;BME280;16038;47.692;9.400;2023-04-28T05:15:09;96501.97;;;9.94;100.00
28927;BME280;16038;47.692;9.400;2023-04-28T05:17:35;96497.53;;;9.86;100.00
28927;BME280;16038;47.692;9.400;2023-04-28T05:20:00;96503.72;;;9.83;100.00
28927;BME280;16038;47.692;9.400;2023-04-28T05:22:26;96496.41;;;9.87;100.00
28927;BME280;16038;47.692;9.400;2023-04-28T05:24:51;96496.44;;;9.90;100.00
28927;BME280;16038;47.692;9.400;2023-04-28T05:27:17;96504.66;;;9.90;100.00
28927;BME280;16038;47.692;9.400;2023-04-28T05:29:43;96496.00;;;9.88;100.00
28927;BME280;16038;47.692;9.400;2023-04-28T05:32:08;96496.41;;;9.87;100.00
28927;BME280;16038;47.692;9.400;2023-04-28T05:34:33;96498.22;;;9.79;100.00
28927;BME280;16038;47.692;9.400;2023-04-28T05:36:58;96505.75;;;9.86;100.00
28927;BME280;16038;47.692;9.400;2023-04-28T05:39:24;96508.44;;;9.82;100.00
28927;BME280;16038;47.692;9.400;2023-04-28T05:41:50;96499.81;;;9.80;100.00
28927;BME280;16038;47.692;9.400;2023-04-28T05:44:15;96496.66;;;9.78;100.00
28927;BME280;16038;47.692;9.400;2023-04-28T05:46:40;96504.44;;;9.76;100.00
28927;BME280;16038;47.692;9.400;2023-04-28T05:49:06;96510.38;;;9.82;100.00
28927;BME280;16038;47.692;9.400;2023-04-28T05:51:31;96517.22;;;9.72;100.00
28927;BME280;16038;47.692;9.400;2023-04-28T05:53:57;96512.81;;;9.64;100.00
28927;BME280;16038;47.692;9.400;2023-04-28T05:56:23;96501.56;;;9.69;100.00
28927;BME280;16038;47.692;9.400;2023-04-28T05:58:48;96503.47;;;9.91;100.00
28927;BME280;16038;47.692;9.400;2023-04-28T06:01:14;96507.88;;;9.96;100.00
28927;BME280;16038;47.692;9.400;2023-04-28T06:03:40;96497.72;;;9.97;100.00
28927;BME280;16038;47.692;9.400;2023-04-28T06:06:06;96502.09;;;10.01;100.00
28927;BME280;16038;47.692;9.400;2023-04-28T06:08:31;96502.03;;;9.98;100.00
28927;BME280;16038;47.692;9.400;2023-04-28T06:10:56;96512.47;;;9.92;100.00
28927;BME280;16038;47.692;9.400;2023-04-28T06:13:22;96503.66;;;10.02;100.00
28927;BME280;16038;47.692;9.400;2023-04-28T06:15:47;96503.81;;;10.13;100.00
28927;BME280;16038;47.692;9.400;2023-04-28T06:18:12;96506.09;;;10.07;100.00
28927;BME280;16038;47.692;9.400;2023-04-28T06:20:40;96511.19;;;10.09;100.00
28927;BME280;16038;47.692;9.400;2023-04-28T06:23:05;96502.09;;;10.01;100.00
28927;BME280;16038;47.692;9.400;2023-04-28T06:25:30;96508.56;;;10.16;100.00
28927;BME280;16038;47.692;9.400;2023-04-28T06:27:56;96504.66;;;10.17;100.00
28927;BME280;16038;47.692;9.400;2023-04-28T06:30:21;96503.56;;;10.22;100.00
28927;BME280;16038;47.692;9.400;2023-04-28T06:32:47;96505.16;;;10.23;100.00
28927;BME280;16038;47.692;9.400;2023-04-28T06:35:12;96509.09;;;10.25;100.00
28927;BME280;16038;47.692;9.400;2023-04-28T06:37:38;96500.88;;;10.25;100.00
28927;BME280;16038;47.692;9.400;2023-04-28T06:40:03;96500.50;;;10.27;100.00
28927;BME280;16038;47.692;9.400;2023-04-28T06:42:29;96503.28;;;10.30;100.00
28927;BME280;16038;47.692;9.400;2023-04-28T06:44:54;96498.50;;;10.24;100.00
28927;BME280;16038;47.692;9.400;2023-04-28T06:47:19;96498.63;;;10.31;100.00
28927;BME280;16038;47.692;9.400;2023-04-28T06:49:45;96495.22;;;10.38;100.00
28927;BME280;16038;47.692;9.400;2023-04-28T06:52:14;96491.19;;;10.31;100.00
28927;BME280;16038;47.692;9.400;2023-04-28T06:54:39;96484.03;;;10.50;100.00
28927;BME280;16038;47.692;9.400;2023-04-28T06:57:05;96482.50;;;10.52;100.00
28927;BME280;16038;47.692;9.400;2023-04-28T06:59:30;96487.28;;;10.59;100.00
28927;BME280;16038;47.692;9.400;2023-04-28T07:01:56;96481.16;;;10.73;100.00
28927;BME280;16038;47.692;9.400;2023-04-28T07:04:21;96481.16;;;10.73;100.00
28927;BME280;16038;47.692;9.400;2023-04-28T07:06:46;96486.88;;;10.57;100.00
28927;BME280;16038;47.692;9.400;2023-04-28T07:09:12;96489.16;;;10.55;100.00
28927;BME280;16038;47.692;9.400;2023-04-28T07:11:37;96489.50;;;10.50;100.00
28927;BME280;16038;47.692;9.400;2023-04-28T07:14:02;96479.63;;;10.42;100.00
28927;BME280;16038;47.692;9.400;2023-04-28T07:16:28;96490.16;;;10.40;100.00
28927;BME280;16038;47.692;9.400;2023-04-28T07:18:53;96485.03;;;10.68;100.00
28927;BME280;16038;47.692;9.400;2023-04-28T07:21:18;96484.88;;;10.88;100.00
28927;BME280;16038;47.692;9.400;2023-04-28T07:23:45;96477.28;;;11.08;100.00
28927;BME280;16038;47.692;9.400;2023-04-28T07:26:11;96485.34;;;11.31;100.00
28927;BME280;16038;47.692;9.400;2023-04-28T07:28:40;96473.28;;;11.39;100.00
28927;BME280;16038;47.692;9.400;2023-04-28T07:31:05;96472.09;;;11.37;100.00
28927;BME280;16038;47.692;9.400;2023-04-28T07:33:30;96471.75;;;11.42;100.00
28927;BME280;16038;47.692;9.400;2023-04-28T07:35:56;96485.94;;;11.51;100.00
28927;BME280;16038;47.692;9.400;2023-04-28T07:38:21;96480.16;;;11.63;100.00
28927;BME280;16038;47.692;9.400;2023-04-28T07:40:46;96472.34;;;11.65;100.00
28927;BME280;16038;47.692;9.400;2023-04-28T07:43:12;96474.75;;;11.71;100.00
28927;BME280;16038;47.692;9.400;2023-04-28T07:45:38;96473.63;;;11.79;100.00
28927;BME280;16038;47.692;9.400;2023-04-28T07:48:03;96471.72;;;11.83;100.00
28927;BME280;16038;47.692;9.400;2023-04-28T07:50:29;96472.06;;;11.78;100.00
28927;BME280;16038;47.692;9.400;2023-04-28T07:52:54;96471.91;;;11.60;100.00
28927;BME280;16038;47.692;9.400;2023-04-28T07:55:19;96483.81;;;11.78;100.00
28927;BME280;16038;47.692;9.400;2023-04-28T07:57:45;96478.75;;;11.84;100.00
28927;BME280;16038;47.692;9.400;2023-04-28T08:00:11;96488.97;;;11.83;100.00
28927;BME280;16038;47.692;9.400;2023-04-28T08:02:36;96495.91;;;11.74;100.00
28927;BME280;16038;47.692;9.400;2023-04-28T08:05:01;96505.28;;;11.65;100.00
28927;BME280;16038;47.692;9.400;2023-04-28T08:07:27;96517.00;;;11.62;100.00
28927;BME280;16038;47.692;9.400;2023-04-28T08:09:52;96520.91;;;11.61;100.00
28927;BME280;16038;47.692;9.400;2023-04-28T08:12:19;96525.53;;;11.54;100.00
28927;BME280;16038;47.692;9.400;2023-04-28T08:14:44;96521.94;;;11.46;100.00
28927;BME280;16038;47.692;9.400;2023-04-28T08:17:10;96513.44;;;11.58;100.00
28927;BME280;16038;47.692;9.400;2023-04-28T08:19:35;96523.97;;;11.53;100.00
28927;BME280;16038;47.692;9.400;2023-04-28T08:22:01;96527.94;;;11.59;100.00
28927;BME280;16038;47.692;9.400;2023-04-28T08:24:29;96510.28;;;11.56;100.00
28927;BME280;16038;47.692;9.400;2023-04-28T08:26:59;96499.09;;;11.35;100.00
28927;BME280;16038;47.692;9.400;2023-04-28T08:29:24;96524.91;;;11.30;100.00
28927;BME280;16038;47.692;9.400;2023-04-28T08:31:50;96529.88;;;11.21;100.00
28927;BME280;16038;47.692;9.400;2023-04-28T08:34:15;96541.69;;;11.25;100.00
28927;BME280;16038;47.692;9.400;2023-04-28T08:36:40;96528.84;;;11.33;100.00
28927;BME280;16038;47.692;9.400;2023-04-28T08:39:06;96530.13;;;11.42;100.00
28927;BME280;16038;47.692;9.400;2023-04-28T08:41:32;96531.19;;;11.34;100.00
28927;BME280;16038;47.692;9.400;2023-04-28T08:44:02;96537.53;;;11.38;100.00
28927;BME280;16038;47.692;9.400;2023-04-28T08:46:30;96530.97;;;11.50;100.00
28927;BME280;16038;47.692;9.400;2023-04-28T08:48:58;96534.97;;;11.56;100.00
28927;BME280;16038;47.692;9.400;2023-04-28T08:51:26;96532.44;;;11.78;100.00
28927;BME280;16038;47.692;9.400;2023-04-28T08:53:56;96527.50;;;11.94;100.00
28927;BME280;16038;47.692;9.400;2023-04-28T08:56:23;96511.84;;;11.98;100.00
28927;BME280;16038;47.692;9.400;2023-04-28T08:58:51;96516.06;;;11.89;100.00
28927;BME280;16038;47.692;9.400;2023-04-28T09:01:17;96520.31;;;11.86;100.00
28927;BME280;16038;47.692;9.400;2023-04-28T09:03:43;96524.50;;;11.69;100.00
28927;BME280;16038;47.692;9.400;2023-04-28T09:06:08;96546.38;;;11.62;100.00
28927;BME280;16038;47.692;9.400;2023-04-28T09:08:34;96544.13;;;11.71;100.00
28927;BME280;16038;47.692;9.400;2023-04-28T09:11:06;96548.53;;;11.86;100.00
28927;BME280;16038;47.692;9.400;2023-04-28T09:13:32;96549.44;;;11.94;100.00
28927;BME280;16038;47.692;9.400;2023-04-28T09:15:59;96548.78;;;12.12;100.00
28927;BME280;16038;47.692;9.400;2023-04-28T09:18:24;96544.56;;;12.21;100.00
28927;BME280;16038;47.692;9.400;2023-04-28T09:20:50;96553.28;;;12.34;100.00
28927;BME280;16038;47.692;9.400;2023-04-28T09:26:00;96543.00;;;12.24;100.00
28927;BME280;16038;47.692;9.400;2023-04-28T09:28:26;96546.56;;;12.24;100.00
28927;BME280;16038;47.692;9.400;2023-04-28T09:30:52;96544.09;;;12.12;100.00
28927;BME280;16038;47.692;9.400;2023-04-28T09:33:17;96535.53;;;12.21;100.00
28927;BME280;16038;47.692;9.400;2023-04-28T09:35:43;96535.97;;;12.27;100.00
28927;BME280;16038;47.692;9.400;2023-04-28T09:38:10;96543.16;;;12.46;100.00
28927;BME280;16038;47.692;9.400;2023-04-28T09:40:51;96541.91;;;12.36;100.00
28927;BME280;16038;47.692;9.400;2023-04-28T09:43:23;96542.28;;;12.31;100.00
28927;BME280;16038;47.692;9.400;2023-04-28T09:45:48;96545.81;;;12.35;100.00
28927;BME280;16038;47.692;9.400;2023-04-28T09:48:13;96540.66;;;12.26;100.00
28927;BME280;16038;47.692;9.400;2023-04-28T09:50:39;96546.94;;;12.23;100.00
28927;BME280;16038;47.692;9.400;2023-04-28T09:53:04;96544.84;;;12.05;100.00
28927;BME280;16038;47.692;9.400;2023-04-28T09:55:30;96530.72;;;12.07;100.00
28927;BME280;16038;47.692;9.400;2023-04-28T09:57:57;96532.75;;;12.14;100.00
28927;BME280;16038;47.692;9.400;2023-04-28T10:00:26;96532.72;;;12.10;100.00
28927;BME280;16038;47.692;9.400;2023-04-28T10:02:51;96534.28;;;12.11;100.00
28927;BME280;16038;47.692;9.400;2023-04-28T10:05:17;96539.66;;;11.97;100.00
28927;BME280;16038;47.692;9.400;2023-04-28T10:07:43;96534.22;;;12.04;100.00
28927;BME280;16038;47.692;9.400;2023-04-28T10:10:09;96526.34;;;11.99;100.00
28927;BME280;16038;47.692;9.400;2023-04-28T10:12:34;96527.03;;;11.89;100.00
28927;BME280;16038;47.692;9.400;2023-04-28T10:15:02;96534.81;;;11.86;100.00
28927;BME280;16038;47.692;9.400;2023-04-28T10:17:28;96544.63;;;11.84;100.00
28927;BME280;16038;47.692;9.400;2023-04-28T10:19:53;96545.56;;;11.99;100.00
28927;BME280;16038;47.692;9.400;2023-04-28T10:27:21;96539.41;;;12.13;100.00
28927;BME280;16038;47.692;9.400;2023-04-28T10:29:53;96542.22;;;12.23;100.00
28927;BME280;16038;47.692;9.400;2023-04-28T10:32:19;96547.09;;;12.48;100.00
28927;BME280;16038;47.692;9.400;2023-04-28T10:34:45;96531.81;;;12.51;100.00
28927;BME280;16038;47.692;9.400;2023-04-28T10:37:11;96537.72;;;12.56;100.00
28927;BME280;16038;47.692;9.400;2023-04-28T10:39:39;96536.22;;;12.66;100.00
28927;BME280;16038;47.692;9.400;2023-04-28T10:42:04;96540.06;;;12.54;100.00
28927;BME280;16038;47.692;9.400;2023-04-28T10:47:05;96527.81;;;12.37;100.00
28927;BME280;16038;47.692;9.400;2023-04-28T10:50:03;96537.25;;;12.43;100.00
28927;BME280;16038;47.692;9.400;2023-04-28T10:57:44;96542.28;;;13.00;100.00
28927;BME280;16038;47.692;9.400;2023-04-28T11:00:27;96543.88;;;13.16;100.00
28927;BME280;16038;47.692;9.400;2023-04-28T11:02:52;96540.78;;;13.25;100.00
28927;BME280;16038;47.692;9.400;2023-04-28T11:05:18;96544.31;;;13.22;100.00
28927;BME280;16038;47.692;9.400;2023-04-28T11:10:51;96537.56;;;13.01;100.00
28927;BME280;16038;47.692;9.400;2023-04-28T11:13:28;96523.75;;;12.90;100.00
28927;BME280;16038;47.692;9.400;2023-04-28T11:16:04;96529.59;;;12.81;100.00
28927;BME280;16038;47.692;9.400;2023-04-28T11:19:03;96536.97;;;12.59;100.00
28927;BME280;16038;47.692;9.400;2023-04-28T11:21:22;96540.59;;;12.81;100.00
28927;BME280;16038;47.692;9.400;2023-04-28T11:23:48;96528.13;;;12.98;100.00
28927;BME280;16038;47.692;9.400;2023-04-28T11:26:14;96539.16;;;13.02;100.00
28927;BME280;16038;47.692;9.400;2023-04-28T11:28:46;96534.06;;;13.11;100.00
28927;BME280;16038;47.692;9.400;2023-04-28T11:33:37;96540.22;;;12.83;100.00
28927;BME280;16038;47.692;9.400;2023-04-28T11:36:03;96541.44;;;12.86;100.00
28927;BME280;16038;47.692;9.400;2023-04-28T11:38:28;96539.84;;;12.88;100.00
28927;BME280;16038;47.692;9.400;2023-04-28T11:40:55;96532.81;;;12.98;100.00
28927;BME280;16038;47.692;9.400;2023-04-28T11:43:27;96538.41;;;13.23;100.00
28927;BME280;16038;47.692;9.400;2023-04-28T11:45:52;96538.09;;;13.39;100.00
28927;BME280;16038;47.692;9.400;2023-04-28T11:48:21;96527.13;;;13.57;100.00
28927;BME280;16038;47.692;9.400;2023-04-28T11:50:46;96531.09;;;13.67;100.00
28927;BME280;16038;47.692;9.400;2023-04-28T11:53:12;96540.13;;;13.56;100.00
28927;BME280;16038;47.692;9.400;2023-04-28T11:55:37;96536.94;;;13.36;100.00
28927;BME280;16038;47.692;9.400;2023-04-28T12:00:43;96531.44;;;13.40;100.00
28927;BME280;16038;47.692;9.400;2023-04-28T12:03:09;96534.09;;;13.15;100.00
28927;BME280;16038;47.692;9.400;2023-04-28T12:05:34;96528.16;;;13.02;100.00
28927;BME280;16038;47.692;9.400;2023-04-28T12:08:01;96532.81;;;12.98;100.00
28927;BME280;16038;47.692;9.400;2023-04-28T12:10:27;96521.47;;;13.07;100.00
28927;BME280;16038;47.692;9.400;2023-04-28T12:12:52;96520.25;;;12.93;100.00
28927;BME280;16038;47.692;9.400;2023-04-28T12:15:17;96521.94;;;13.30;100.00
28927;BME280;16038;47.692;9.400;2023-04-28T12:17:42;96529.13;;;13.60;100.00
28927;BME280;16038;47.692;9.400;2023-04-28T12:20:09;96524.78;;;13.66;100.00
28927;BME280;16038;47.692;9.400;2023-04-28T12:23:09;96532.66;;;13.75;100.00
28927;BME280;16038;47.692;9.400;2023-04-28T12:25:27;96536.22;;;13.83;100.00
28927;BME280;16038;47.692;9.400;2023-04-28T12:27:59;96533.84;;;13.67;100.00
28927;BME280;16038;47.692;9.400;2023-04-28T12:30:26;96521.63;;;13.53;100.00
28927;BME280;16038;47.692;9.400;2023-04-28T12:32:52;96518.50;;;13.69;100.00
28927;BME280;16038;47.692;9.400;2023-04-28T12:35:21;96524.81;;;14.06;100.00
28927;BME280;16038;47.692;9.400;2023-04-28T12:37:47;96528.75;;;14.26;100.00
28927;BME280;16038;47.692;9.400;2023-04-28T12:40:12;96526.75;;;14.45;100.00
28927;BME280;16038;47.692;9.400;2023-04-28T12:42:38;96526.75;;;14.56;100.00
28927;BME280;16038;47.692;9.400;2023-04-28T12:45:04;96518.09;;;14.53;100.00
28927;BME280;16038;47.692;9.400;2023-04-28T12:47:30;96518.50;;;14.59;100.00
28927;BME280;16038;47.692;9.400;2023-04-28T12:49:55;96514.16;;;14.62;100.00
28927;BME280;16038;47.692;9.400;2023-04-28T12:52:21;96516.06;;;14.79;100.00
28927;BME280;16038;47.692;9.400;2023-04-28T12:54:46;96521.91;;;14.96;100.00
28927;BME280;16038;47.692;9.400;2023-04-28T12:57:15;96521.47;;;15.12;100.00
28927;BME280;16038;47.692;9.400;2023-04-28T12:59:44;96518.25;;;15.27;100.00
28927;BME280;16038;47.692;9.400;2023-04-28T13:02:11;96512.91;;;14.88;100.00
28927;BME280;16038;47.692;9.400;2023-04-28T13:04:38;96515.28;;;14.82;100.00
28927;BME280;16038;47.692;9.400;2023-04-28T13:07:04;96514.53;;;14.67;100.00
28927;BME280;16038;47.692;9.400;2023-04-28T13:09:31;96514.97;;;14.59;100.00
28927;BME280;16038;47.692;9.400;2023-04-28T13:11:56;96510.63;;;14.61;100.00